createdAt,value
2018-11-03T00:00:07.395Z,32.77
2018-11-03T00:02:36.502Z,37.13
2018-11-03T00:05:05.625Z,31.83
2018-11-03T00:07:34.730Z,38.60
2018-11-03T00:10:03.835Z,33.60
2018-11-03T00:12:32.829Z,29.03
2018-11-03T00:15:01.868Z,31.30
2018-11-03T00:17:31.018Z,30.87
2018-11-03T00:20:00.062Z,35.50
2018-11-03T00:22:29.143Z,30.87
2018-11-03T00:24:58.266Z,33.10
2018-11-03T00:27:27.367Z,35.90
2018-11-03T00:29:56.705Z,32.17
2018-11-03T00:32:26.043Z,33.80
2018-11-03T00:34:55.163Z,36.23
2018-11-03T00:37:24.281Z,41.37
2018-11-03T00:39:53.343Z,39.53
2018-11-03T00:42:22.411Z,32.43
2018-11-03T00:44:51.519Z,38.87
2018-11-03T00:47:20.630Z,30.57
2018-11-03T00:49:49.774Z,34.07
2018-11-03T00:52:18.815Z,36.40
2018-11-03T00:54:47.841Z,37.30
2018-11-03T00:57:16.949Z,35.83
2018-11-03T00:59:45.977Z,40.87
2018-11-03T01:02:15.079Z,33.67
2018-11-03T01:04:44.198Z,36.03
2018-11-03T01:07:13.276Z,32.13
2018-11-03T01:09:42.459Z,36.57
2018-11-03T01:12:11.557Z,36.30
2018-11-03T01:14:40.647Z,29.80
2018-11-03T01:17:09.833Z,35.20
2018-11-03T01:19:38.836Z,33.33
2018-11-03T01:22:07.926Z,36.83
2018-11-03T01:24:37.055Z,35.40
2018-11-03T01:27:06.451Z,34.70
2018-11-03T01:29:35.516Z,34.57
2018-11-03T01:32:04.614Z,36.97
2018-11-03T01:34:33.744Z,35.33
2018-11-03T01:37:02.827Z,36.93
2018-11-03T01:39:31.901Z,34.20
2018-11-03T01:42:01.102Z,35.00
2018-11-03T01:44:30.202Z,37.87
2018-11-03T01:46:59.338Z,34.53
2018-11-03T01:49:28.418Z,39.23
2018-11-03T01:51:57.477Z,40.13
2018-11-03T01:54:26.786Z,40.63
2018-11-03T01:56:55.797Z,38.07
2018-11-03T01:59:24.904Z,39.07
2018-11-03T02:01:53.950Z,41.07
2018-11-03T02:04:23.052Z,38.97
2018-11-03T02:06:52.058Z,41.17
2018-11-03T02:09:21.169Z,35.50
2018-11-03T02:11:50.698Z,42.33
2018-11-03T02:14:19.708Z,32.70
2018-11-03T02:16:48.806Z,36.27
2018-11-03T02:19:17.852Z,37.57
2018-11-03T02:21:46.872Z,39.60
2018-11-03T02:24:15.942Z,35.87
2018-11-03T02:26:44.946Z,40.77
2018-11-03T02:29:14.041Z,36.97
2018-11-03T02:31:43.108Z,39.63
2018-11-03T02:34:12.770Z,40.50
2018-11-03T02:36:41.818Z,38.37
2018-11-03T02:39:11.100Z,37.07
2018-11-03T02:41:40.226Z,34.83
2018-11-03T02:44:09.274Z,35.43
2018-11-03T02:46:38.317Z,35.50
2018-11-03T02:49:07.593Z,37.77
2018-11-03T02:51:36.591Z,36.97
2018-11-03T02:54:06.174Z,37.70
2018-11-03T02:56:35.209Z,41.00
2018-11-03T02:59:04.307Z,34.33
2018-11-03T03:01:33.360Z,36.17
2018-11-03T03:04:02.590Z,34.33
2018-11-03T03:06:31.686Z,35.80
2018-11-03T03:09:00.776Z,38.47
2018-11-03T03:11:29.852Z,29.47
2018-11-03T03:13:58.966Z,34.97
2018-11-03T03:16:28.061Z,35.33
2018-11-03T03:18:57.149Z,38.17
2018-11-03T03:21:26.233Z,34.23
2018-11-03T03:23:55.338Z,38.73
2018-11-03T03:26:24.421Z,38.90
2018-11-03T03:28:53.530Z,41.20
2018-11-03T03:31:22.603Z,41.00
2018-11-03T03:33:51.698Z,36.30
2018-11-03T03:36:20.777Z,37.63
2018-11-03T03:38:49.887Z,37.20
2018-11-03T03:41:18.953Z,37.43
2018-11-03T03:43:49.005Z,39.77
2018-11-03T03:46:18.132Z,34.27
2018-11-03T03:48:47.235Z,34.80
2018-11-03T03:51:16.287Z,37.97
2018-11-03T03:53:45.403Z,34.53
2018-11-03T03:56:14.488Z,35.20
2018-11-03T03:58:43.687Z,33.93
2018-11-03T04:01:12.779Z,37.43
2018-11-03T04:03:41.956Z,40.50
2018-11-03T04:06:11.089Z,40.93
2018-11-03T04:08:40.357Z,32.87
2018-11-03T04:11:09.555Z,32.87
2018-11-03T04:13:38.663Z,37.57
2018-11-03T04:16:07.692Z,37.17
2018-11-03T04:18:36.768Z,35.73
2018-11-03T04:21:06.061Z,37.70
2018-11-03T04:23:35.131Z,41.80
2018-11-03T04:26:04.261Z,37.60
2018-11-03T04:28:33.353Z,36.33
2018-11-03T04:31:02.433Z,35.97
2018-11-03T04:33:31.485Z,48.73
2018-11-03T04:36:00.513Z,42.07
2018-11-03T04:38:29.543Z,37.17
2018-11-03T04:40:58.655Z,36.10
2018-11-03T04:43:27.693Z,36.57
2018-11-03T04:45:56.782Z,41.00
2018-11-03T04:48:25.912Z,40.10
2018-11-03T04:50:55.011Z,41.53
2018-11-03T04:53:24.067Z,41.77
2018-11-03T04:55:53.212Z,42.23
2018-11-03T04:58:22.264Z,34.67
2018-11-03T05:00:51.381Z,35.87
2018-11-03T05:03:20.435Z,35.83
2018-11-03T05:05:49.567Z,41.57
2018-11-03T05:08:18.655Z,41.60
2018-11-03T05:10:47.703Z,43.13
2018-11-03T05:13:16.812Z,39.40
2018-11-03T05:15:45.900Z,35.47
2018-11-03T05:18:15.015Z,38.53
2018-11-03T05:20:44.063Z,37.00
2018-11-03T05:23:13.081Z,37.83
2018-11-03T05:25:42.071Z,36.47
2018-11-03T05:28:11.088Z,45.03
2018-11-03T05:30:40.262Z,41.20
2018-11-03T05:33:09.356Z,41.97
2018-11-03T05:35:38.654Z,46.37
2018-11-03T05:38:07.960Z,42.20
2018-11-03T05:40:36.986Z,36.83
2018-11-03T05:43:06.078Z,38.40
2018-11-03T05:45:35.166Z,33.93
2018-11-03T05:48:04.344Z,41.70
2018-11-03T05:50:33.486Z,36.60
2018-11-03T05:53:02.547Z,39.53
2018-11-03T05:55:31.654Z,40.87
2018-11-03T05:58:00.726Z,35.63
2018-11-03T06:00:29.831Z,42.10
2018-11-03T06:02:59.620Z,37.70
2018-11-03T06:05:28.770Z,38.83
2018-11-03T06:07:57.848Z,37.50
2018-11-03T06:10:26.942Z,42.77
2018-11-03T06:12:55.988Z,37.67
2018-11-03T06:15:25.085Z,37.50
2018-11-03T06:17:54.149Z,36.53
2018-11-03T06:20:23.218Z,36.53
2018-11-03T06:22:52.276Z,42.63
2018-11-03T06:25:21.450Z,37.30
2018-11-03T06:27:50.477Z,43.90
2018-11-03T06:30:19.648Z,39.90
2018-11-03T06:32:48.696Z,42.67
2018-11-03T06:35:17.892Z,36.57
2018-11-03T06:37:46.911Z,45.87
2018-11-03T06:40:15.994Z,38.57
2018-11-03T06:42:45.097Z,38.97
2018-11-03T06:45:14.082Z,43.27
2018-11-03T06:47:43.127Z,38.30
2018-11-03T06:50:12.258Z,39.87
2018-11-03T06:52:41.269Z,46.10
2018-11-03T06:55:10.338Z,42.93
2018-11-03T06:57:39.427Z,43.83
2018-11-03T07:00:09.229Z,40.60
2018-11-03T07:02:38.377Z,43.23
2018-11-03T07:05:08.181Z,44.67
2018-11-03T07:07:37.253Z,42.47
2018-11-03T07:10:07.571Z,40.00
2018-11-03T07:12:37.070Z,40.00
2018-11-03T07:15:06.167Z,37.80
2018-11-03T07:17:35.757Z,38.27
2018-11-03T07:20:05.266Z,42.60
2018-11-03T07:22:34.461Z,40.47
2018-11-03T07:25:03.471Z,42.57
2018-11-03T07:27:32.617Z,42.17
2018-11-03T07:30:01.658Z,41.70
2018-11-03T07:32:31.235Z,46.93
2018-11-03T07:35:00.451Z,46.77
2018-11-03T07:37:29.547Z,42.63
2018-11-03T07:39:58.668Z,48.47
2018-11-03T07:42:27.977Z,42.00
2018-11-03T07:44:57.050Z,44.97
2018-11-03T07:47:26.103Z,51.47
2018-11-03T07:49:55.284Z,43.53
2018-11-03T07:52:24.310Z,45.73
2018-11-03T07:54:53.548Z,46.50
2018-11-03T07:57:22.692Z,44.80
2018-11-03T07:59:51.758Z,44.40
2018-11-03T08:02:20.914Z,51.40
2018-11-03T08:04:50.063Z,46.27
2018-11-03T08:07:19.118Z,46.70
2018-11-03T08:09:48.202Z,48.00
2018-11-03T08:12:17.389Z,43.73
2018-11-03T08:14:46.484Z,45.40
2018-11-03T08:17:15.606Z,47.70
2018-11-03T08:19:44.680Z,48.93
2018-11-03T08:22:13.769Z,44.37
2018-11-03T08:24:42.887Z,49.00
2018-11-03T08:27:11.952Z,50.63
2018-11-03T08:29:41.078Z,44.80
2018-11-03T08:32:10.190Z,45.30
2018-11-03T08:34:39.243Z,48.37
2018-11-03T08:37:08.338Z,46.03
2018-11-03T08:39:37.588Z,45.70
2018-11-03T08:42:06.590Z,50.33
2018-11-03T08:44:35.616Z,45.43
2018-11-03T08:47:05.256Z,50.80
2018-11-03T08:49:34.993Z,44.40
2018-11-03T08:52:04.282Z,44.87
2018-11-03T08:54:33.330Z,50.43
2018-11-03T08:57:02.438Z,53.10
2018-11-03T08:59:31.523Z,47.83
2018-11-03T09:02:00.662Z,56.87
2018-11-03T09:04:30.037Z,53.73
2018-11-03T09:06:59.243Z,48.67
2018-11-03T09:09:29.131Z,54.77
2018-11-03T09:11:58.212Z,55.13
2018-11-03T09:14:27.361Z,51.87
2018-11-03T09:16:56.490Z,48.23
2018-11-03T09:19:25.579Z,47.57
2018-11-03T09:21:54.848Z,56.30
2018-11-03T09:24:24.434Z,53.07
2018-11-03T09:26:53.445Z,51.43
2018-11-03T09:29:22.435Z,45.20
2018-11-03T09:31:51.870Z,47.83
2018-11-03T09:34:20.999Z,48.53
2018-11-03T09:36:50.100Z,57.33
2018-11-03T09:39:19.310Z,51.47
2018-11-03T09:41:48.289Z,49.83
2018-11-03T09:44:17.423Z,52.60
2018-11-03T09:46:46.461Z,59.53
2018-11-03T09:49:15.487Z,47.47
2018-11-03T09:51:44.609Z,52.67
2018-11-03T09:54:13.690Z,51.67
2018-11-03T09:56:43.656Z,50.47
2018-11-03T09:59:12.619Z,54.03
2018-11-03T10:01:41.638Z,50.10
2018-11-03T10:04:10.757Z,51.73
2018-11-03T10:06:39.957Z,50.70
2018-11-03T10:09:09.130Z,50.50
2018-11-03T10:11:38.130Z,53.60
2018-11-03T10:14:07.258Z,49.00
2018-11-03T10:16:36.325Z,45.73
2018-11-03T10:19:08.413Z,46.17
2018-11-03T10:21:37.585Z,48.63
2018-11-03T10:24:06.692Z,46.63
2018-11-03T10:26:35.821Z,47.10
2018-11-03T10:29:04.941Z,39.83
2018-11-03T10:31:34.013Z,39.13
2018-11-03T10:34:03.137Z,37.43
2018-11-03T10:36:32.180Z,41.53
2018-11-03T10:39:01.236Z,42.07
2018-11-03T10:41:30.352Z,42.73
2018-11-03T10:43:59.407Z,43.47
2018-11-03T10:46:28.547Z,37.50
2018-11-03T10:48:57.617Z,36.07
2018-11-03T10:51:26.649Z,39.63
2018-11-03T10:53:55.741Z,35.10
2018-11-03T10:56:24.813Z,35.13
2018-11-03T10:58:53.981Z,34.50
2018-11-03T11:01:28.335Z,27.87
2018-11-03T11:04:02.983Z,31.20
2018-11-03T11:06:37.456Z,28.10
2018-11-03T11:09:12.464Z,32.50
2018-11-03T11:11:47.136Z,29.87
2018-11-03T11:14:16.835Z,30.57
2018-11-03T11:16:45.812Z,26.93
2018-11-03T11:19:14.814Z,32.87
2018-11-03T11:21:43.972Z,28.03
2018-11-03T11:24:13.860Z,26.93
2018-11-03T11:26:42.754Z,22.80
2018-11-03T11:29:11.934Z,25.27
2018-11-03T11:31:41.766Z,20.90
2018-11-03T11:34:10.936Z,21.00
2018-11-03T11:36:40.054Z,20.40
2018-11-03T11:39:09.213Z,19.33
2018-11-03T11:41:38.330Z,16.10
2018-11-03T11:44:07.607Z,20.33
2018-11-03T11:46:36.714Z,20.67
2018-11-03T11:49:06.019Z,16.17
2018-11-03T11:51:35.067Z,21.13
2018-11-03T11:54:04.339Z,20.70
2018-11-03T11:56:33.404Z,15.23
2018-11-03T11:59:02.470Z,19.03
2018-11-03T12:01:31.500Z,21.13
2018-11-03T12:04:00.607Z,18.77
2018-11-03T12:06:29.758Z,17.13
2018-11-03T12:08:58.802Z,17.37
2018-11-03T12:11:27.894Z,19.10
2018-11-03T12:13:56.930Z,17.30
2018-11-03T12:16:25.980Z,22.73
2018-11-03T12:18:55.159Z,16.47
2018-11-03T12:21:24.294Z,16.03
2018-11-03T12:23:53.351Z,16.83
2018-11-03T12:26:22.567Z,17.60
2018-11-03T12:28:51.622Z,13.90
2018-11-03T12:31:20.642Z,17.10
2018-11-03T12:33:49.702Z,14.67
2018-11-03T12:36:18.848Z,12.93
2018-11-03T12:38:47.998Z,12.33
2018-11-03T12:41:17.115Z,14.73
2018-11-03T12:43:46.640Z,13.17
2018-11-03T12:46:15.873Z,12.10
2018-11-03T12:48:44.848Z,12.00
2018-11-03T12:51:13.882Z,9.83
2018-11-03T12:53:42.937Z,11.70
2018-11-03T12:56:12.036Z,8.03
2018-11-03T12:58:41.296Z,12.67
2018-11-03T13:01:10.437Z,9.50
2018-11-03T13:03:39.486Z,10.70
2018-11-03T13:06:08.619Z,10.77
2018-11-03T13:08:37.781Z,11.47
2018-11-03T13:11:06.838Z,10.60
2018-11-03T13:13:35.870Z,11.43
2018-11-03T13:16:05.114Z,10.03
2018-11-03T13:18:34.159Z,10.67
2018-11-03T13:21:03.361Z,11.93
2018-11-03T13:23:32.393Z,14.40
2018-11-03T13:26:01.466Z,13.70
2018-11-03T13:28:30.567Z,11.63
2018-11-03T13:30:59.632Z,10.80
2018-11-03T13:33:28.734Z,12.53
2018-11-03T13:35:57.853Z,11.67
2018-11-03T13:38:26.874Z,14.20
2018-11-03T13:40:56.054Z,11.37
2018-11-03T13:43:25.123Z,10.77
2018-11-03T13:45:54.229Z,13.03
2018-11-03T13:48:23.369Z,10.80
2018-11-03T13:50:52.425Z,12.90
2018-11-03T13:53:21.493Z,9.33
2018-11-03T13:55:50.601Z,9.87
2018-11-03T13:58:19.603Z,10.60
2018-11-03T14:00:48.628Z,11.70
2018-11-03T14:03:17.670Z,7.93
2018-11-03T14:05:46.764Z,7.57
2018-11-03T14:08:15.865Z,9.03
2018-11-03T14:10:44.962Z,9.00
2018-11-03T14:13:14.162Z,7.90
2018-11-03T14:15:43.315Z,7.23
2018-11-03T14:18:12.328Z,7.17
2018-11-03T14:20:41.463Z,7.43
2018-11-03T14:23:10.639Z,9.03
2018-11-03T14:25:39.657Z,8.03
2018-11-03T14:28:08.709Z,7.37
2018-11-03T14:30:37.717Z,7.93
2018-11-03T14:33:06.949Z,9.17
2018-11-03T14:35:36.029Z,9.67
2018-11-03T14:38:05.159Z,12.47
2018-11-03T14:40:34.198Z,8.97
2018-11-03T14:43:03.277Z,8.30
2018-11-03T14:45:32.448Z,13.20
2018-11-03T14:48:01.466Z,7.93
2018-11-03T14:50:32.031Z,5.33
2018-11-03T14:53:01.127Z,7.47
2018-11-03T14:55:30.213Z,10.33
2018-11-03T14:57:59.322Z,9.47
2018-11-03T15:00:28.326Z,8.60
2018-11-03T15:02:57.405Z,8.40
2018-11-03T15:05:26.538Z,7.90
2018-11-03T15:07:55.569Z,9.73
2018-11-03T15:10:24.672Z,8.87
2018-11-03T15:12:53.774Z,6.63
2018-11-03T15:15:22.782Z,10.13
2018-11-03T15:17:51.809Z,8.83
2018-11-03T15:20:20.953Z,7.27
2018-11-03T15:22:50.030Z,7.53
2018-11-03T15:25:19.155Z,8.90
2018-11-03T15:27:48.218Z,10.40
2018-11-03T15:30:17.210Z,8.43
2018-11-03T15:32:46.199Z,8.63
2018-11-03T15:35:15.208Z,7.17
2018-11-03T15:37:44.238Z,7.50
2018-11-03T15:40:14.608Z,8.43
2018-11-03T15:42:44.240Z,9.90
2018-11-03T15:45:15.282Z,10.83
2018-11-03T15:47:44.854Z,10.90
2018-11-03T15:50:14.807Z,10.73
2018-11-03T15:52:44.698Z,10.70
2018-11-03T15:55:13.931Z,11.90
2018-11-03T15:57:43.310Z,9.43
2018-11-03T16:00:15.146Z,10.13
2018-11-03T16:02:44.392Z,9.47
2018-11-03T16:05:13.659Z,10.93
2018-11-03T16:07:43.287Z,10.53
2018-11-03T16:10:12.450Z,13.37
2018-11-03T16:12:41.579Z,10.40
2018-11-03T16:15:11.800Z,11.37
2018-11-03T16:17:41.712Z,12.87
2018-11-03T16:20:12.184Z,13.60
2018-11-03T16:22:41.595Z,13.70
2018-11-03T16:25:10.931Z,11.83
2018-11-03T16:27:40.660Z,15.20
2018-11-03T16:30:13.024Z,14.47
2018-11-03T16:32:42.317Z,14.70
2018-11-03T16:35:11.256Z,18.50
2018-11-03T16:37:40.710Z,14.90
2018-11-03T16:40:11.768Z,15.57
2018-11-03T16:42:41.380Z,13.90
2018-11-03T16:45:12.085Z,13.50
2018-11-03T16:47:41.588Z,18.70
2018-11-03T16:50:11.829Z,18.13
2018-11-03T16:52:41.177Z,19.53
2018-11-03T16:55:11.304Z,15.97
2018-11-03T16:57:40.443Z,19.30
2018-11-03T17:00:11.821Z,14.57
2018-11-03T17:02:41.267Z,16.60
2018-11-03T17:05:11.603Z,14.07
2018-11-03T17:07:40.749Z,15.00
2018-11-03T17:10:12.324Z,14.40
2018-11-03T17:12:43.047Z,18.83
2018-11-03T17:15:12.507Z,18.20
2018-11-03T17:17:41.629Z,17.17
2018-11-03T17:20:11.187Z,20.10
2018-11-03T17:22:40.260Z,20.47
2018-11-03T17:25:10.651Z,21.47
2018-11-03T17:27:39.814Z,24.07
2018-11-03T17:30:11.178Z,19.23
2018-11-03T17:32:40.331Z,21.20
2018-11-03T17:35:09.663Z,25.03
2018-11-03T17:37:38.812Z,19.10
2018-11-03T17:40:08.870Z,22.10
2018-11-03T17:42:37.873Z,27.93
2018-11-03T17:45:08.398Z,19.77
2018-11-03T17:47:37.802Z,20.07
2018-11-03T17:50:08.251Z,19.43
2018-11-03T17:52:37.336Z,22.40
2018-11-03T17:55:07.034Z,20.83
2018-11-03T17:57:36.834Z,21.93
2018-11-03T18:00:09.406Z,25.20
2018-11-03T18:02:38.317Z,23.03
2018-11-03T18:05:07.330Z,23.13
2018-11-03T18:07:37.437Z,20.67
2018-11-03T18:10:07.886Z,21.50
2018-11-03T18:12:36.950Z,21.57
2018-11-03T18:15:06.876Z,25.60
2018-11-03T18:17:36.008Z,28.00
2018-11-03T18:20:05.910Z,23.17
2018-11-03T18:22:34.984Z,26.37
2018-11-03T18:25:04.459Z,25.73
2018-11-03T18:27:33.578Z,27.83
2018-11-03T18:30:02.775Z,24.50
2018-11-03T18:32:31.775Z,26.80
2018-11-03T18:35:00.887Z,25.30
2018-11-03T18:37:29.949Z,21.73
2018-11-03T18:39:59.211Z,23.20
2018-11-03T18:42:28.205Z,29.37
2018-11-03T18:44:57.238Z,25.00
2018-11-03T18:47:26.358Z,26.30
2018-11-03T18:49:55.400Z,28.20
2018-11-03T18:52:24.443Z,27.60
2018-11-03T18:54:53.474Z,26.47
2018-11-03T18:57:22.667Z,21.40
2018-11-03T18:59:51.797Z,25.97
2018-11-03T19:02:20.826Z,22.67
2018-11-03T19:04:49.940Z,24.37
2018-11-03T19:07:19.038Z,24.20
2018-11-03T19:09:48.122Z,22.00
2018-11-03T19:12:17.274Z,23.80
2018-11-03T19:14:46.374Z,26.00
2018-11-03T19:17:15.617Z,24.90
2018-11-03T19:19:44.616Z,31.70
2018-11-03T19:22:13.641Z,24.90
2018-11-03T19:24:42.828Z,27.83
2018-11-03T19:27:11.920Z,27.03
2018-11-03T19:29:41.047Z,27.37
2018-11-03T19:32:10.104Z,27.63
2018-11-03T19:34:39.158Z,29.83
2018-11-03T19:37:08.269Z,31.73
2018-11-03T19:39:37.296Z,35.33
2018-11-03T19:42:06.386Z,32.03
2018-11-03T19:44:35.433Z,34.67
2018-11-03T19:47:04.768Z,35.47
2018-11-03T19:49:33.837Z,29.23
2018-11-03T19:52:02.856Z,30.83
2018-11-03T19:54:31.914Z,37.40
2018-11-03T19:57:01.054Z,41.53
2018-11-03T19:59:30.139Z,33.13
2018-11-03T20:01:59.199Z,29.47
2018-11-03T20:04:28.245Z,35.23
2018-11-03T20:06:57.291Z,40.13
2018-11-03T20:09:26.364Z,31.87
2018-11-03T20:11:55.386Z,36.63
2018-11-03T20:14:24.514Z,32.07
2018-11-03T20:16:53.598Z,31.30
2018-11-03T20:19:22.726Z,32.53
2018-11-03T20:21:51.849Z,36.57
2018-11-03T20:24:20.950Z,35.50
2018-11-03T20:26:50.066Z,35.90
2018-11-03T20:29:19.145Z,35.03
2018-11-03T20:31:48.222Z,42.07
2018-11-03T20:34:17.353Z,37.60
2018-11-03T20:36:46.431Z,38.60
2018-11-03T20:39:15.557Z,33.10
2018-11-03T20:41:44.572Z,33.00
2018-11-03T20:44:13.797Z,29.57
2018-11-03T20:46:42.898Z,35.97
2018-11-03T20:49:13.072Z,38.83
2018-11-03T20:51:42.108Z,37.43
2018-11-03T20:54:11.186Z,42.33
2018-11-03T20:56:40.355Z,35.53
2018-11-03T20:59:09.446Z,36.50
2018-11-03T21:01:38.468Z,37.53
2018-11-03T21:04:07.667Z,44.83
2018-11-03T21:06:36.722Z,45.57
2018-11-03T21:09:07.371Z,49.53
2018-11-03T21:11:36.473Z,45.10
2018-11-03T21:14:05.695Z,44.00
2018-11-03T21:16:35.231Z,44.80
2018-11-03T21:19:04.433Z,44.80
2018-11-03T21:21:33.502Z,39.63
2018-11-03T21:24:02.747Z,39.37
2018-11-03T21:26:31.700Z,41.20
2018-11-03T21:29:00.806Z,43.43
2018-11-03T21:31:29.904Z,40.37
2018-11-03T21:33:59.018Z,47.20
2018-11-03T21:36:27.988Z,42.90
2018-11-03T21:38:57.164Z,41.83
2018-11-03T21:41:26.316Z,46.10
2018-11-03T21:43:55.332Z,42.17
2018-11-03T21:46:24.488Z,46.47
2018-11-03T21:48:53.556Z,43.67
2018-11-03T21:51:22.664Z,45.47
2018-11-03T21:53:51.754Z,46.27
2018-11-03T21:56:20.824Z,43.50
2018-11-03T21:58:49.839Z,39.90
2018-11-03T22:01:18.942Z,42.90
2018-11-03T22:03:47.975Z,36.83
2018-11-03T22:06:17.045Z,39.73
2018-11-03T22:08:46.114Z,38.63
2018-11-03T22:11:15.148Z,42.77
2018-11-03T22:13:44.594Z,42.73
2018-11-03T22:16:13.727Z,38.47
2018-11-03T22:18:42.926Z,42.83
2018-11-03T22:21:11.986Z,41.40
2018-11-03T22:23:40.974Z,45.70
2018-11-03T22:26:09.996Z,41.27
2018-11-03T22:28:39.054Z,43.73
2018-11-03T22:31:08.034Z,43.20
2018-11-03T22:33:37.058Z,38.90
2018-11-03T22:36:06.202Z,42.60
2018-11-03T22:38:35.242Z,41.50
2018-11-03T22:41:04.538Z,42.33
2018-11-03T22:43:33.550Z,43.17
2018-11-03T22:52:59.668Z,44.77
2018-11-03T22:55:28.700Z,50.30
2018-11-03T22:57:57.886Z,50.40
2018-11-03T23:00:26.888Z,43.97
2018-11-03T23:02:55.993Z,48.20
2018-11-03T23:05:25.123Z,40.73
2018-11-03T23:07:54.318Z,46.00
2018-11-03T23:10:23.289Z,40.83
2018-11-03T23:12:52.338Z,45.57
2018-11-03T23:15:21.361Z,43.27
2018-11-03T23:17:50.409Z,41.63
2018-11-03T23:20:19.479Z,43.63
2018-11-03T23:22:48.484Z,50.67
2018-11-03T23:25:17.491Z,42.40
2018-11-03T23:27:46.520Z,45.17
2018-11-03T23:31:19.061Z,47.17
2018-11-03T23:33:49.168Z,48.03
2018-11-03T23:36:18.253Z,51.23
2018-11-03T23:38:47.309Z,48.70
2018-11-03T23:41:16.401Z,48.03
2018-11-03T23:43:45.597Z,44.17
2018-11-03T23:46:14.766Z,43.23
2018-11-03T23:48:44.185Z,42.97
2018-11-03T23:51:13.193Z,43.43
2018-11-03T23:53:42.281Z,50.60
2018-11-03T23:56:11.309Z,44.43
2018-11-03T23:58:40.370Z,44.60
